Main page
METAR-TAF:

METAR-TAF

Airports :

Saint-Dizier – Robinson Air Base

Saint-Dizier, France

latitude: 48-38N, longitude: 004-54E, elevation: 139 m

Current weather observation

The report was made 15 minutes ago, at 00:00 UTC
Wind 4 kt from the West/Northwest
Temperature 3°C
Humidity 93%
Pressure 1008 hPa
Visibility: 6000 m

METAR: LFSI 180000Z AUTO 30004KT 6000 NSC 03/02 Q1008

Time: 01:15 (00:15 UTC)

Forecast

The report was made 4 hours and 15 minutes ago, at 20:00 UTC
Forecast valid from 17 at 21 UTC to 18 at 21 UTC
Wind 5 kt from the West
Visibility: 4000 m
mist
Becoming
from 17 at 21 UTC to 17 at 24 UTC
Broken clouds at a height of 500 ft
Becoming
from 18 at 00 UTC to 18 at 02 UTC
rain
Temporary
from 18 at 09 UTC to 18 at 11 UTC
snow, rain

TAF: LFSI 172000Z 1721/1821 28005KT 4000 BR NSC BECMG 1721/1724 BKN005 BECMG 1800/1802 RA TEMPO 1809/1811 SNRA

Weather observations and forecasts of more than 4000 airports (METAR and TAF reports).

The available stations are represented by yellow and red dots on the map.

Hover mouse over dot to see the name of the station.

Then click to see weather observations and forecasts.

To change the map : click on the green buttons with a black cross to zoom in, on the green button with a dash to zoom out, or on the green arrows for adjacent maps.


METAR-TAF: